createdAt,value
2022-09-26T00:00:01.337Z,14.17
2022-09-26T00:03:22.855Z,14.24
2022-09-26T00:06:44.420Z,14.19
2022-09-26T00:10:08.754Z,14.17
2022-09-26T00:13:31.824Z,14.16
2022-09-26T00:16:56.326Z,14.12
2022-09-26T00:20:20.490Z,14.10
2022-09-26T00:23:42.349Z,14.16
2022-09-26T00:27:06.150Z,14.14
2022-09-26T00:30:27.841Z,14.14
2022-09-26T00:33:51.977Z,14.14
2022-09-26T00:37:13.580Z,14.19
2022-09-26T00:40:37.775Z,14.14
2022-09-26T00:43:59.319Z,14.16
2022-09-26T00:47:29.632Z,14.19
2022-09-26T00:50:52.749Z,14.24
2022-09-26T00:54:17.497Z,14.13
2022-09-26T00:57:45.397Z,14.13
2022-09-26T01:01:09.756Z,14.09
2022-09-26T01:04:35.714Z,14.01
2022-09-26T01:07:58.623Z,14.01
2022-09-26T01:11:23.370Z,14.03
2022-09-26T01:14:48.911Z,13.87
2022-09-26T01:18:10.568Z,13.93
2022-09-26T01:21:50.444Z,13.90
2022-09-26T01:25:55.535Z,13.96
2022-09-26T01:29:23.136Z,14.05
2022-09-26T01:33:03.465Z,14.02
2022-09-26T01:36:43.123Z,14.06
2022-09-26T01:40:21.945Z,14.10
2022-09-26T01:43:46.538Z,14.09
2022-09-26T01:47:20.940Z,14.10
2022-09-26T01:51:02.578Z,14.10
2022-09-26T01:54:36.436Z,14.10
2022-09-26T01:58:13.965Z,13.99
2022-09-26T02:01:44.775Z,13.92
2022-09-26T02:05:15.896Z,14.01
2022-09-26T02:08:44.781Z,14.02
2022-09-26T02:12:11.961Z,14.08
2022-09-26T02:15:40.467Z,14.09
2022-09-26T02:19:13.721Z,14.08
2022-09-26T02:22:35.319Z,13.82
2022-09-26T02:25:58.146Z,13.83
2022-09-26T02:29:21.451Z,13.87
2022-09-26T02:32:45.517Z,13.87
2022-09-26T02:36:10.351Z,13.92
2022-09-26T02:39:31.991Z,13.96
2022-09-26T02:43:08.034Z,14.01
2022-09-26T02:46:48.762Z,13.45
2022-09-26T02:50:28.109Z,13.62
2022-09-26T02:54:10.793Z,13.61
2022-09-26T02:57:35.351Z,13.68
2022-09-26T03:01:15.964Z,13.82
2022-09-26T03:04:54.426Z,13.85
2022-09-26T03:08:20.187Z,13.72
2022-09-26T03:11:43.886Z,13.59
2022-09-26T03:15:07.452Z,13.51
2022-09-26T03:19:19.819Z,13.34
2022-09-26T03:22:42.598Z,13.47
2022-09-26T03:26:15.516Z,13.61
2022-09-26T03:29:41.859Z,13.38
2022-09-26T03:33:03.389Z,13.45
2022-09-26T03:36:25.257Z,13.44
2022-09-26T03:39:46.769Z,13.48
2022-09-26T03:43:10.630Z,13.45
2022-09-26T03:46:35.072Z,13.55
2022-09-26T03:50:01.210Z,13.71
2022-09-26T03:53:22.714Z,13.72
2022-09-26T03:56:44.782Z,13.72
2022-09-26T04:00:07.971Z,13.44
2022-09-26T04:03:35.288Z,13.53
2022-09-26T04:06:56.788Z,13.27
2022-09-26T04:10:18.830Z,13.24
2022-09-26T04:13:53.920Z,13.30
2022-09-26T04:17:15.755Z,13.37
2022-09-26T04:20:39.545Z,13.20
2022-09-26T04:24:02.076Z,13.13
2022-09-26T04:27:27.579Z,13.14
2022-09-26T04:30:49.616Z,13.23
2022-09-26T04:34:12.031Z,13.31
2022-09-26T04:37:37.046Z,13.30
2022-09-26T04:41:04.253Z,13.31
2022-09-26T04:44:25.824Z,13.23
2022-09-26T04:47:49.780Z,13.26
2022-09-26T04:51:13.912Z,13.33
2022-09-26T04:54:38.347Z,13.41
2022-09-26T04:58:02.635Z,13.55
2022-09-26T05:01:28.223Z,13.68
2022-09-26T05:04:51.227Z,13.54
2022-09-26T05:08:14.063Z,13.65
2022-09-26T05:11:35.590Z,13.61
2022-09-26T05:15:00.116Z,13.65
2022-09-26T05:18:24.636Z,13.71
2022-09-26T05:21:46.136Z,13.72
2022-09-26T05:25:26.765Z,13.79
2022-09-26T05:29:06.846Z,13.86
2022-09-26T05:32:31.961Z,13.90
2022-09-26T05:35:54.833Z,13.92
2022-09-26T05:39:37.818Z,13.96
2022-09-26T05:43:03.337Z,13.78
2022-09-26T05:46:27.182Z,13.71
2022-09-26T05:49:51.131Z,13.71
2022-09-26T05:53:13.262Z,13.74
2022-09-26T05:56:37.370Z,13.59
2022-09-26T05:59:59.027Z,13.48
2022-09-26T06:03:23.074Z,13.53
2022-09-26T06:06:44.662Z,13.61
2022-09-26T06:10:07.130Z,13.50
2022-09-26T06:13:29.556Z,13.50
2022-09-26T06:16:51.152Z,13.37
2022-09-26T06:20:15.962Z,13.44
2022-09-26T06:23:40.358Z,13.31
2022-09-26T06:27:01.957Z,13.31
2022-09-26T06:30:24.338Z,13.48
2022-09-26T06:33:54.478Z,13.68
2022-09-26T06:37:18.524Z,13.83
2022-09-26T06:40:40.263Z,13.95
2022-09-26T06:44:03.123Z,13.96
2022-09-26T06:47:25.014Z,14.02
2022-09-26T06:50:54.120Z,13.92
2022-09-26T06:54:15.957Z,13.99
2022-09-26T06:57:43.735Z,13.59
2022-09-26T07:01:11.319Z,13.65
2022-09-26T07:04:33.574Z,13.55
2022-09-26T07:07:55.467Z,13.65
2022-09-26T07:15:00.401Z,13.72
2022-09-26T07:18:21.928Z,13.89
2022-09-26T07:21:48.709Z,13.86
2022-09-26T07:25:11.434Z,13.72
2022-09-26T07:28:32.994Z,13.79
2022-09-26T07:31:54.606Z,13.83
2022-09-26T07:35:17.487Z,13.75
2022-09-26T07:38:39.064Z,13.75
2022-09-26T07:42:04.433Z,13.90
2022-09-26T07:45:44.728Z,13.86
2022-09-26T07:49:24.550Z,13.96
2022-09-26T07:52:50.655Z,13.98
2022-09-26T07:56:16.757Z,13.99
2022-09-26T07:59:40.688Z,13.86
2022-09-26T08:03:02.677Z,13.83
2022-09-26T08:06:31.545Z,13.92
2022-09-26T08:09:55.680Z,14.01
2022-09-26T08:13:19.915Z,13.99
2022-09-26T08:16:42.054Z,14.17
2022-09-26T08:20:04.386Z,14.33
2022-09-26T08:23:30.125Z,14.30
2022-09-26T08:26:55.379Z,14.33
2022-09-26T08:30:20.071Z,14.37
2022-09-26T08:33:47.064Z,14.47
2022-09-26T08:37:08.747Z,14.51
2022-09-26T08:40:39.653Z,14.47
2022-09-26T08:44:01.623Z,14.58
2022-09-26T08:47:33.737Z,14.57
2022-09-26T08:51:03.891Z,14.48
2022-09-26T08:54:39.476Z,14.41
2022-09-26T08:58:23.177Z,14.57
2022-09-26T09:01:49.926Z,14.65
2022-09-26T09:05:20.955Z,14.65
2022-09-26T09:08:55.274Z,14.84
2022-09-26T09:12:41.241Z,15.12
2022-09-26T09:16:28.340Z,15.33
2022-09-26T09:20:20.554Z,15.30
2022-09-26T09:24:15.806Z,15.29
2022-09-26T09:28:02.562Z,15.46
2022-09-26T09:31:32.398Z,15.54
2022-09-26T09:34:57.111Z,15.44
2022-09-26T09:38:31.623Z,15.75
2022-09-26T09:42:04.118Z,16.11
2022-09-26T09:45:50.425Z,16.25
2022-09-26T09:49:22.882Z,16.19
2022-09-26T10:06:46.476Z,16.90
2022-09-26T10:10:19.958Z,16.84
2022-09-26T10:13:44.266Z,16.76
2022-09-26T10:17:19.596Z,16.63
2022-09-26T10:21:02.212Z,16.63
2022-09-26T10:24:41.909Z,16.69
2022-09-26T10:28:21.629Z,16.76
2022-09-26T10:31:51.018Z,16.80
2022-09-26T10:35:25.518Z,16.90
2022-09-26T10:39:17.282Z,17.21
2022-09-26T10:42:38.937Z,17.25
2022-09-26T10:46:17.835Z,17.22
2022-09-26T10:49:40.161Z,17.15
2022-09-26T10:53:08.557Z,17.15
2022-09-26T10:56:36.197Z,17.03
2022-09-26T11:00:01.431Z,16.91
2022-09-26T11:03:33.525Z,16.64
2022-09-26T11:06:55.088Z,16.70
2022-09-26T11:10:24.827Z,16.60
2022-09-26T11:14:04.957Z,16.55
2022-09-26T11:17:48.796Z,16.70
2022-09-26T11:21:28.698Z,16.81
2022-09-26T11:25:03.535Z,16.83
2022-09-26T11:28:34.284Z,16.87
2022-09-26T11:32:00.159Z,16.92
2022-09-26T11:35:44.341Z,17.12
2022-09-26T11:39:31.142Z,17.27
2022-09-26T11:43:30.585Z,17.29
2022-09-26T11:47:04.307Z,17.45
2022-09-26T11:50:54.101Z,17.39
2022-09-26T11:54:26.016Z,17.18
2022-09-26T11:58:38.363Z,17.15
2022-09-26T12:02:18.897Z,17.19
2022-09-26T12:05:49.032Z,17.38
2022-09-26T12:09:23.234Z,17.52
2022-09-26T12:12:50.128Z,17.77
2022-09-26T12:16:21.700Z,18.13
2022-09-26T12:19:55.724Z,17.86
2022-09-26T12:23:22.952Z,18.10
2022-09-26T12:26:49.302Z,18.42
2022-09-26T12:30:21.936Z,18.92
2022-09-26T12:34:02.344Z,18.96
2022-09-26T12:37:57.405Z,18.83
2022-09-26T12:41:40.637Z,19.00
2022-09-26T12:45:17.388Z,19.44
2022-09-26T12:48:56.872Z,19.69
2022-09-26T12:52:33.699Z,19.86
2022-09-26T12:56:05.367Z,19.74
2022-09-26T12:59:58.217Z,19.64
2022-09-26T13:03:38.633Z,19.62
2022-09-26T13:07:20.795Z,19.66
2022-09-26T13:10:48.215Z,19.61
2022-09-26T13:14:21.723Z,19.55
2022-09-26T13:17:53.208Z,19.51
2022-09-26T13:21:21.298Z,19.28
2022-09-26T13:24:42.700Z,19.09
2022-09-26T13:28:18.983Z,18.85
2022-09-26T13:31:56.162Z,18.55
2022-09-26T13:35:26.362Z,18.48
2022-09-26T13:38:53.873Z,18.38
2022-09-26T13:42:20.782Z,18.47
2022-09-26T13:45:50.713Z,18.32
2022-09-26T13:49:34.111Z,18.28
2022-09-26T13:53:15.174Z,18.31
2022-09-26T13:56:36.689Z,18.40
2022-09-26T13:59:59.004Z,18.40
2022-09-26T14:03:20.643Z,18.35
2022-09-26T14:07:41.248Z,18.21
2022-09-26T14:11:11.977Z,18.17
2022-09-26T14:14:46.148Z,18.22
2022-09-26T14:18:18.044Z,18.13
2022-09-26T14:22:00.305Z,18.15
2022-09-26T14:25:47.692Z,18.22
2022-09-26T14:29:32.906Z,18.34
2022-09-26T14:33:05.238Z,18.41
2022-09-26T14:36:31.113Z,18.45
2022-09-26T14:40:06.670Z,18.38
2022-09-26T14:43:33.374Z,18.37
2022-09-26T14:46:55.362Z,18.38
2022-09-26T14:50:28.642Z,18.35
2022-09-26T14:53:50.400Z,18.44
2022-09-26T14:57:24.807Z,18.47
2022-09-26T15:00:50.506Z,18.51
2022-09-26T15:04:17.860Z,18.42
2022-09-26T15:07:46.165Z,18.56
2022-09-26T15:11:38.708Z,19.00
2022-09-26T15:15:12.585Z,19.27
2022-09-26T15:18:42.354Z,19.37
2022-09-26T15:22:13.750Z,19.51
2022-09-26T15:25:40.556Z,19.65
2022-09-26T15:29:11.311Z,19.65
2022-09-26T15:32:33.796Z,19.55
2022-09-26T15:35:55.522Z,19.50
2022-09-26T15:39:35.231Z,19.50
2022-09-26T15:43:14.293Z,19.43
2022-09-26T15:46:41.765Z,19.23
2022-09-26T15:50:10.244Z,19.04
2022-09-26T15:53:36.899Z,18.88
2022-09-26T15:57:08.074Z,18.77
2022-09-26T16:00:38.784Z,18.63
2022-09-26T16:04:06.338Z,18.48
2022-09-26T16:07:30.869Z,18.41
2022-09-26T16:10:56.248Z,18.28
2022-09-26T16:14:41.524Z,18.22
2022-09-26T16:18:05.769Z,18.01
2022-09-26T16:21:34.159Z,17.87
2022-09-26T16:25:19.311Z,17.72
2022-09-26T16:28:44.774Z,17.59
2022-09-26T16:32:14.303Z,17.50
2022-09-26T16:35:43.523Z,17.38
2022-09-26T16:39:21.865Z,17.25
2022-09-26T16:42:49.288Z,17.12
2022-09-26T16:46:20.801Z,17.00
2022-09-26T16:49:50.169Z,16.94
2022-09-26T16:53:12.608Z,16.81
2022-09-26T16:56:38.218Z,16.79
2022-09-26T17:00:35.514Z,16.69
2022-09-26T17:04:02.169Z,16.61
2022-09-26T17:07:25.016Z,16.56
2022-09-26T17:10:46.708Z,16.49
2022-09-26T17:14:16.470Z,16.46
2022-09-26T17:17:38.366Z,16.42
2022-09-26T17:21:11.917Z,16.43
2022-09-26T17:24:35.960Z,16.36
2022-09-26T17:28:02.520Z,16.34
2022-09-26T17:31:34.623Z,16.18
2022-09-26T17:35:00.108Z,16.11
2022-09-26T17:38:21.721Z,16.26
2022-09-26T17:41:46.354Z,16.49
2022-09-26T17:45:08.349Z,16.77
2022-09-26T17:48:32.677Z,17.00
2022-09-26T17:51:57.065Z,17.17
2022-09-26T17:55:20.332Z,17.21
2022-09-26T17:58:45.457Z,16.98
2022-09-26T18:02:24.480Z,16.64
2022-09-26T18:05:46.405Z,16.39
2022-09-26T18:09:16.736Z,16.11
2022-09-26T18:12:38.789Z,15.88
2022-09-26T18:16:01.202Z,15.74
2022-09-26T18:19:22.932Z,15.68
2022-09-26T18:22:47.628Z,15.58
2022-09-26T18:26:17.042Z,15.50
2022-09-26T18:29:42.237Z,15.39
2022-09-26T18:33:07.176Z,15.36
2022-09-26T18:36:33.396Z,15.32
2022-09-26T18:39:58.998Z,15.35
2022-09-26T18:43:25.444Z,15.27
2022-09-26T18:46:48.265Z,15.27
2022-09-26T18:50:29.576Z,15.26
2022-09-26T18:53:51.219Z,15.25
2022-09-26T18:57:39.252Z,15.20
2022-09-26T19:01:15.225Z,15.13
2022-09-26T19:04:38.473Z,15.06
2022-09-26T19:08:05.555Z,15.02
2022-09-26T19:11:29.232Z,14.98
2022-09-26T19:14:50.939Z,14.95
2022-09-26T19:18:12.615Z,14.93
2022-09-26T19:21:53.209Z,14.87
2022-09-26T19:25:17.467Z,14.82
2022-09-26T19:28:38.976Z,14.79
2022-09-26T19:32:04.604Z,14.77
2022-09-26T19:35:36.623Z,14.77
2022-09-26T19:39:03.080Z,14.70
2022-09-26T19:42:29.502Z,14.68
2022-09-26T19:45:53.400Z,14.63
2022-09-26T19:49:18.712Z,14.60
2022-09-26T19:52:40.379Z,14.56
2022-09-26T19:56:02.165Z,14.56
2022-09-26T19:59:27.701Z,14.50
2022-09-26T20:02:51.830Z,14.50
2022-09-26T20:06:27.526Z,14.45
2022-09-26T20:09:49.247Z,14.50
2022-09-26T20:13:10.976Z,14.47
2022-09-26T20:16:38.524Z,14.40
2022-09-26T20:20:05.269Z,14.40
2022-09-26T20:23:27.208Z,14.77
2022-09-26T20:26:53.804Z,15.20
2022-09-26T20:30:37.378Z,15.53
2022-09-26T20:34:01.961Z,15.74
2022-09-26T20:37:23.664Z,15.88
2022-09-26T20:40:46.396Z,15.73
2022-09-26T20:44:11.725Z,15.51
2022-09-26T20:47:37.361Z,15.37
2022-09-26T20:51:01.463Z,15.19
2022-09-26T20:54:27.721Z,15.09
2022-09-26T20:57:50.769Z,14.91
2022-09-26T21:01:14.308Z,14.82
2022-09-26T21:04:37.969Z,14.75
2022-09-26T21:08:00.508Z,14.61
2022-09-26T21:11:24.847Z,14.54
2022-09-26T21:14:46.571Z,14.50
2022-09-26T21:18:31.869Z,14.47
2022-09-26T21:21:53.428Z,14.47
2022-09-26T21:25:19.711Z,14.44
2022-09-26T21:28:43.477Z,14.45
2022-09-26T21:32:07.975Z,14.45
2022-09-26T21:35:31.918Z,14.33
2022-09-26T21:38:56.564Z,14.31
2022-09-26T21:42:20.522Z,14.31
2022-09-26T21:45:44.011Z,14.13
2022-09-26T21:49:05.599Z,13.78
2022-09-26T21:52:36.993Z,13.78
2022-09-26T21:56:08.308Z,13.59
2022-09-26T21:59:32.271Z,13.58
2022-09-26T22:03:00.638Z,13.50
2022-09-26T22:06:24.470Z,13.58
2022-09-26T22:09:46.257Z,13.65
2022-09-26T22:13:07.900Z,13.81
2022-09-26T22:16:31.824Z,13.92
2022-09-26T22:19:53.471Z,14.05
2022-09-26T22:23:19.068Z,14.12
2022-09-26T22:26:42.811Z,14.17
2022-09-26T22:30:05.540Z,14.24
2022-09-26T22:33:27.080Z,14.26
2022-09-26T22:36:53.289Z,14.27
2022-09-26T22:40:17.154Z,14.30
2022-09-26T22:43:41.595Z,14.29
2022-09-26T22:47:05.919Z,14.26
2022-09-26T22:50:29.996Z,14.30
2022-09-26T22:53:51.848Z,14.33
2022-09-26T22:57:16.669Z,14.29
2022-09-26T23:00:40.843Z,14.36
2022-09-26T23:04:04.785Z,14.37
2022-09-26T23:07:26.334Z,14.40
2022-09-26T23:10:56.005Z,14.44
2022-09-26T23:14:17.502Z,14.31
2022-09-26T23:17:43.826Z,14.26
2022-09-26T23:21:07.680Z,14.17
2022-09-26T23:24:29.328Z,14.17
2022-09-26T23:27:53.817Z,14.13
2022-09-26T23:31:17.894Z,14.16
2022-09-26T23:34:39.452Z,14.12
2022-09-26T23:38:05.411Z,14.17
2022-09-26T23:41:32.283Z,14.09
2022-09-26T23:44:53.944Z,14.02
2022-09-26T23:48:15.738Z,13.96
2022-09-26T23:51:39.559Z,13.93
2022-09-26T23:55:01.069Z,13.82
2022-09-26T23:58:25.320Z,13.76
